Time;durP1;ratioP1;P1;durP2;ratioP2;P2;SDS_P1;SDS_P2;PMS_P1;PMS_P2;Temp;Humidity;BMP_temperature;BMP_pressure;BME280_temperature;BME280_humidity;BME280_pressure;Samples;Min_cycle;Max_cycle;Signal;HPM_P1;HPM_P2
2023/10/23 00:00:49;;;;;;;4.30;1.20;;;18.60;68.50;;;;;;5061700;28;20098;-66
2023/10/23 00:03:15;;;;;;;5.03;1.45;;;18.60;68.50;;;;;;5053640;28;20037;-65
2023/10/23 00:05:40;;;;;;;2.13;0.98;;;18.60;68.50;;;;;;5058429;28;20086;-66
2023/10/23 00:08:06;;;;;;;2.58;1.40;;;18.60;68.50;;;;;;5061600;28;20033;-66
2023/10/23 00:10:31;;;;;;;2.67;0.90;;;18.60;68.50;;;;;;5059580;28;20664;-67
2023/10/23 00:12:57;;;;;;;3.40;1.33;;;18.60;69.10;;;;;;5059205;28;20082;-65
2023/10/23 00:15:22;;;;;;;2.67;1.17;;;18.60;68.60;;;;;;5061782;28;20033;-64
2023/10/23 00:17:48;;;;;;;3.20;1.15;;;18.60;68.50;;;;;;5054310;28;20029;-64
2023/10/23 00:20:13;;;;;;;2.97;1.00;;;18.60;68.50;;;;;;5052963;28;20029;-66
2023/10/23 00:22:39;;;;;;;1.52;1.05;;;18.60;68.50;;;;;;5057476;28;20025;-65
2023/10/23 00:25:05;;;;;;;1.35;0.90;;;18.60;69.10;;;;;;5058500;28;20059;-66
2023/10/23 00:27:30;;;;;;;3.30;1.13;;;18.60;68.50;;;;;;5057574;28;20495;-66
2023/10/23 00:29:56;;;;;;;1.85;1.10;;;18.60;68.50;;;;;;5058000;28;20029;-66
2023/10/23 00:32:21;;;;;;;3.25;1.20;;;18.60;68.50;;;;;;5061212;28;20143;-64
2023/10/23 00:34:47;;;;;;;2.42;0.90;;;18.60;68.50;;;;;;5054494;28;20043;-66
2023/10/23 00:37:12;;;;;;;1.88;0.90;;;18.60;68.50;;;;;;5061377;28;20082;-64
2023/10/23 00:39:38;;;;;;;3.28;1.13;;;18.60;68.50;;;;;;5060424;28;20108;-64
2023/10/23 00:42:04;;;;;;;2.95;1.02;;;18.60;68.50;;;;;;5060176;28;20064;-65
2023/10/23 00:44:30;;;;;;;1.65;1.10;;;18.60;68.50;;;;;;5062240;28;20062;-65
2023/10/23 00:46:55;;;;;;;2.67;1.17;;;18.60;68.50;;;;;;5059922;28;20052;-64
2023/10/23 00:49:21;;;;;;;2.30;1.02;;;18.60;68.50;;;;;;5058712;28;20040;-66
2023/10/23 00:51:47;;;;;;;2.75;1.30;;;18.60;68.50;;;;;;5057394;28;20040;-65
2023/10/23 00:54:14;;;;;;;3.30;1.10;;;18.60;68.50;;;;;;5057178;28;20086;-66
2023/10/23 00:56:39;;;;;;;2.42;0.93;;;18.60;68.50;;;;;;5060433;28;20025;-67
2023/10/23 00:59:05;;;;;;;2.70;1.25;;;18.60;68.50;;;;;;5059128;28;20033;-65
2023/10/23 01:01:32;;;;;;;2.30;1.23;;;18.60;68.50;;;;;;5057746;28;20136;-63
2023/10/23 01:04:00;;;;;;;3.60;1.10;;;18.60;68.50;;;;;;5055020;28;20036;-66
2023/10/23 01:06:27;;;;;;;2.58;0.93;;;18.60;68.50;;;;;;5059638;28;20048;-66
2023/10/23 01:08:53;;;;;;;2.28;1.15;;;18.60;68.50;;;;;;5057009;28;20518;-65
2023/10/23 01:11:18;;;;;;;1.65;0.90;;;18.60;68.50;;;;;;5057999;28;20062;-65
2023/10/23 01:13:44;;;;;;;1.77;0.95;;;18.60;68.50;;;;;;5060131;28;20041;-64
2023/10/23 01:16:10;;;;;;;1.33;1.00;;;18.60;68.50;;;;;;5063277;28;20033;-66
2023/10/23 01:18:35;;;;;;;3.75;1.10;;;18.60;68.50;;;;;;5066020;28;20039;-67
2023/10/23 01:21:01;;;;;;;2.45;1.13;;;18.60;68.50;;;;;;5067292;28;20020;-63
2023/10/23 01:23:31;;;;;;;1.90;1.27;;;18.60;68.50;;;;;;5062044;28;20054;-64
2023/10/23 01:25:57;;;;;;;2.88;1.15;;;18.60;68.50;;;;;;5061033;28;20119;-65
2023/10/23 01:28:22;;;;;;;2.20;1.08;;;18.60;68.50;;;;;;5063432;28;20562;-65
2023/10/23 01:30:48;;;;;;;2.25;1.00;;;18.60;68.50;;;;;;5065783;28;20119;-66
2023/10/23 01:33:14;;;;;;;1.90;0.90;;;18.60;68.50;;;;;;5059071;28;20621;-65
2023/10/23 01:35:39;;;;;;;1.20;0.98;;;18.60;68.50;;;;;;5067790;28;20060;-66
2023/10/23 01:38:05;;;;;;;3.30;1.08;;;18.60;68.50;;;;;;5067476;28;20020;-67
2023/10/23 01:40:30;;;;;;;2.00;0.98;;;18.60;68.40;;;;;;5064538;28;20028;-66
2023/10/23 01:42:56;;;;;;;2.08;0.80;;;18.60;68.50;;;;;;5067422;28;20032;-65
2023/10/23 01:45:21;;;;;;;1.80;0.88;;;18.60;68.50;;;;;;5067374;28;20128;-65
2023/10/23 01:47:47;;;;;;;2.92;1.27;;;18.60;68.50;;;;;;5061341;28;20373;-65
2023/10/23 01:50:12;;;;;;;2.00;0.80;;;18.60;68.50;;;;;;5063523;28;20024;-66
2023/10/23 01:52:39;;;;;;;2.28;0.90;;;18.60;68.40;;;;;;5061405;28;20463;-65
2023/10/23 01:55:05;;;;;;;3.20;1.30;;;18.60;69.10;;;;;;5065355;28;20565;-66
2023/10/23 01:57:30;;;;;;;3.13;1.10;;;18.50;68.40;;;;;;5065595;28;20340;-66
2023/10/23 02:00:03;;;;;;;1.98;0.85;;;18.60;68.50;;;;;;5062535;28;20032;-65
2023/10/23 02:02:29;;;;;;;1.70;0.98;;;18.60;68.50;;;;;;5062195;28;20525;-64
2023/10/23 02:04:55;;;;;;;1.60;1.00;;;18.60;68.50;;;;;;5065544;28;20032;-65
2023/10/23 02:07:20;;;;;;;2.80;1.63;;;18.60;68.50;;;;;;5065248;28;20043;-67
2023/10/23 02:09:46;;;;;;;1.63;0.85;;;18.60;68.50;;;;;;5061505;28;20354;-64
2023/10/23 02:12:11;;;;;;;2.50;1.00;;;18.60;68.50;;;;;;5066689;28;20032;-66
2023/10/23 02:14:37;;;;;;;1.38;0.80;;;18.60;68.50;;;;;;5065042;28;20445;-66
2023/10/23 02:17:02;;;;;;;2.10;1.15;;;18.60;68.40;;;;;;5056519;28;20039;-65
2023/10/23 02:19:29;;;;;;;2.13;0.70;;;18.60;68.50;;;;;;5063079;28;20033;-65
2023/10/23 02:21:55;;;;;;;3.13;1.27;;;18.60;68.50;;;;;;5065116;28;20033;-64
2023/10/23 02:24:20;;;;;;;1.30;0.80;;;18.60;68.40;;;;;;5066106;28;20056;-66
2023/10/23 02:26:47;;;;;;;1.50;0.75;;;18.60;68.40;;;;;;5062394;28;20033;-64
2023/10/23 02:29:13;;;;;;;1.17;0.80;;;18.60;68.50;;;;;;5063426;28;20487;-65
2023/10/23 02:31:38;;;;;;;1.20;0.70;;;18.60;68.50;;;;;;5061838;28;20082;-65
2023/10/23 02:34:07;;;;;;;1.58;0.70;;;18.60;68.50;;;;;;5057902;28;20040;-61
2023/10/23 02:36:33;;;;;;;2.45;0.75;;;18.60;68.50;;;;;;5071891;28;20039;-65
2023/10/23 02:38:59;;;;;;;2.22;1.02;;;18.60;68.50;;;;;;5062346;28;20063;-64
2023/10/23 02:41:27;;;;;;;2.35;1.17;;;18.60;68.40;;;;;;5063341;28;20037;-64
2023/10/23 02:43:53;;;;;;;1.42;0.80;;;18.60;68.40;;;;;;5063447;28;20028;-64
2023/10/23 02:46:18;;;;;;;3.08;0.73;;;18.60;68.40;;;;;;5057559;28;20109;-65
2023/10/23 02:48:44;;;;;;;3.35;0.95;;;18.60;68.40;;;;;;5054927;28;20284;-68
2023/10/23 02:51:09;;;;;;;1.35;0.63;;;18.60;68.40;;;;;;5054344;28;20429;-64
2023/10/23 02:53:35;;;;;;;1.75;0.90;;;18.60;68.50;;;;;;5061275;28;20166;-64
2023/10/23 02:56:02;;;;;;;2.40;0.80;;;18.60;68.40;;;;;;5057797;28;20086;-66
2023/10/23 02:58:28;;;;;;;2.55;1.00;;;18.60;68.40;;;;;;5061382;28;20587;-64
2023/10/23 03:00:53;;;;;;;2.45;1.00;;;18.60;68.40;;;;;;5061485;28;20040;-66
2023/10/23 03:03:19;;;;;;;1.38;0.80;;;18.60;68.40;;;;;;5062712;28;20063;-65
2023/10/23 03:05:44;;;;;;;2.75;0.73;;;18.60;68.50;;;;;;5063845;28;20025;-65
2023/10/23 03:08:10;;;;;;;1.63;0.70;;;18.60;68.40;;;;;;5062192;28;20060;-66
2023/10/23 03:10:36;;;;;;;1.75;0.85;;;18.60;68.50;;;;;;5060186;28;20242;-65
2023/10/23 03:13:02;;;;;;;2.67;1.00;;;18.60;68.40;;;;;;5063610;28;20024;-66
2023/10/23 03:15:28;;;;;;;2.75;0.80;;;18.60;68.40;;;;;;5062131;28;20025;-63
2023/10/23 03:17:54;;;;;;;1.38;0.90;;;18.60;68.40;;;;;;5056149;28;20017;-65
2023/10/23 03:20:19;;;;;;;3.97;1.30;;;18.60;68.40;;;;;;5059589;28;20124;-65
2023/10/23 03:22:45;;;;;;;1.25;0.70;;;18.60;68.40;;;;;;5059281;28;20518;-65
2023/10/23 03:25:11;;;;;;;2.17;0.93;;;18.60;68.40;;;;;;5063373;28;20024;-65
2023/10/23 03:27:36;;;;;;;2.85;0.77;;;18.60;68.40;;;;;;5061016;28;20043;-66
2023/10/23 03:30:03;;;;;;;1.38;0.80;;;18.60;68.40;;;;;;5061315;28;20236;-66
2023/10/23 03:32:29;;;;;;;1.85;0.70;;;18.60;68.40;;;;;;5059962;28;20406;-66
2023/10/23 03:34:57;;;;;;;1.63;0.88;;;18.60;68.40;;;;;;5059239;28;20024;-66
2023/10/23 03:37:22;;;;;;;3.05;1.05;;;18.60;68.40;;;;;;5060129;28;20601;-63
2023/10/23 03:39:49;;;;;;;3.33;0.80;;;18.60;68.40;;;;;;5062808;28;20063;-65
2023/10/23 03:42:15;;;;;;;3.35;1.73;;;18.60;68.40;;;;;;5056544;28;20029;-67
2023/10/23 03:44:40;;;;;;;1.92;1.20;;;18.60;68.40;;;;;;5055167;28;20541;-63
2023/10/23 03:47:06;;;;;;;1.83;0.90;;;18.60;68.40;;;;;;5061133;28;20573;-64
2023/10/23 03:49:31;;;;;;;2.05;0.93;;;18.60;68.40;;;;;;5058463;28;20042;-67
2023/10/23 03:51:57;;;;;;;2.78;0.95;;;18.60;68.40;;;;;;5059406;28;20392;-65
2023/10/23 03:54:22;;;;;;;3.22;0.77;;;18.60;68.40;;;;;;5060862;28;20041;-65
2023/10/23 03:56:48;;;;;;;2.92;1.33;;;18.60;68.40;;;;;;5055747;28;20035;-65
2023/10/23 03:59:14;;;;;;;2.28;1.00;;;18.60;68.40;;;;;;5061534;28;20025;-67
2023/10/23 04:01:39;;;;;;;3.03;1.00;;;18.60;68.50;;;;;;5055983;28;20049;-67
2023/10/23 04:04:05;;;;;;;3.50;0.93;;;18.60;68.40;;;;;;5061253;28;20566;-65
2023/10/23 04:06:30;;;;;;;1.40;0.70;;;18.60;68.40;;;;;;5060431;28;20512;-65
2023/10/23 04:08:56;;;;;;;1.38;0.73;;;18.60;68.40;;;;;;5059590;28;20093;-67
2023/10/23 04:11:22;;;;;;;2.17;0.85;;;18.60;68.40;;;;;;5057048;28;20063;-67
2023/10/23 04:13:47;;;;;;;1.40;0.68;;;18.60;68.40;;;;;;5059287;28;20033;-66
2023/10/23 04:16:14;;;;;;;1.92;0.70;;;18.60;68.40;;;;;;5057333;28;20060;-63
2023/10/23 04:18:40;;;;;;;2.15;0.90;;;18.60;68.40;;;;;;5058676;28;20509;-65
2023/10/23 04:21:07;;;;;;;1.88;0.90;;;18.60;68.40;;;;;;5059205;28;20058;-66
2023/10/23 04:23:37;;;;;;;1.13;0.70;;;18.60;68.40;;;;;;5059283;28;20028;-65
2023/10/23 04:26:03;;;;;;;1.42;0.98;;;18.60;68.40;;;;;;5057782;28;20510;-67
2023/10/23 04:28:30;;;;;;;0.85;0.50;;;18.60;68.40;;;;;;5061681;28;20055;-64
2023/10/23 04:30:55;;;;;;;2.05;0.88;;;18.60;68.40;;;;;;5059163;28;20509;-64
2023/10/23 04:33:22;;;;;;;2.17;1.33;;;18.60;68.40;;;;;;5061019;28;20036;-67
2023/10/23 04:35:55;;;;;;;3.42;1.00;;;18.60;68.40;;;;;;5055442;28;20029;-66
2023/10/23 04:38:21;;;;;;;1.65;0.93;;;18.50;68.30;;;;;;5063717;28;20501;-65
2023/10/23 04:40:46;;;;;;;2.85;0.93;;;18.60;68.40;;;;;;5052260;28;20028;-64
2023/10/23 04:43:13;;;;;;;2.00;0.70;;;18.60;68.40;;;;;;5055777;28;20024;-64
2023/10/23 04:45:39;;;;;;;2.15;0.88;;;18.60;68.40;;;;;;5056286;28;20059;-67
2023/10/23 04:48:06;;;;;;;2.08;0.60;;;18.60;68.40;;;;;;5056371;28;20021;-66
2023/10/23 04:50:35;;;;;;;2.08;0.80;;;18.50;68.30;;;;;;5061138;28;20033;-66
2023/10/23 04:53:01;;;;;;;1.88;0.75;;;18.60;68.40;;;;;;5058242;28;20135;-63
2023/10/23 04:55:36;;;;;;;3.10;0.68;;;18.60;68.40;;;;;;5054823;28;20036;-65
2023/10/23 04:58:02;;;;;;;1.35;0.73;;;18.60;68.40;;;;;;5058893;28;20112;-65
2023/10/23 05:00:28;;;;;;;2.97;0.80;;;18.60;68.40;;;;;;5058838;28;20028;-66
2023/10/23 05:02:54;;;;;;;2.45;0.80;;;18.60;68.40;;;;;;5059107;28;20046;-65
2023/10/23 05:05:20;;;;;;;2.13;0.80;;;18.60;68.40;;;;;;5060898;28;20040;-66
2023/10/23 05:07:45;;;;;;;1.50;0.60;;;18.60;68.40;;;;;;5063919;28;20036;-66
2023/10/23 05:10:11;;;;;;;1.77;0.70;;;18.50;68.40;;;;;;5059601;28;20109;-65
2023/10/23 05:12:38;;;;;;;1.85;0.80;;;18.60;68.40;;;;;;5055832;28;20056;-66
2023/10/23 05:15:04;;;;;;;3.20;0.93;;;18.50;68.30;;;;;;5057255;28;20025;-66
2023/10/23 05:17:30;;;;;;;3.17;0.80;;;18.60;68.40;;;;;;5060445;28;20060;-68
2023/10/23 05:19:55;;;;;;;2.13;1.25;;;18.50;68.40;;;;;;5059609;28;20048;-66
2023/10/23 05:22:21;;;;;;;1.80;0.73;;;18.60;68.40;;;;;;5061278;28;20043;-66
2023/10/23 05:24:47;;;;;;;1.40;0.77;;;18.50;68.30;;;;;;5062712;28;20035;-66
2023/10/23 05:27:19;;;;;;;2.22;0.80;;;18.50;68.40;;;;;;5058334;28;20400;-67
2023/10/23 05:29:45;;;;;;;2.20;0.60;;;18.50;68.50;;;;;;5059291;28;20029;-66
2023/10/23 05:32:10;;;;;;;2.25;0.73;;;18.50;68.50;;;;;;5055443;28;20043;-67
2023/10/23 05:34:36;;;;;;;3.15;0.70;;;18.50;68.50;;;;;;5060290;28;20032;-67
2023/10/23 05:37:01;;;;;;;1.33;0.93;;;18.50;68.40;;;;;;5061872;28;20147;-66
2023/10/23 05:39:28;;;;;;;1.38;0.60;;;18.50;68.40;;;;;;5060480;28;20073;-68
2023/10/23 05:41:53;;;;;;;1.80;0.60;;;18.50;68.40;;;;;;5056241;28;20220;-66
2023/10/23 05:44:19;;;;;;;3.08;1.38;;;18.60;68.40;;;;;;5053991;28;20039;-66
2023/10/23 05:46:44;;;;;;;3.03;0.73;;;18.50;68.40;;;;;;5061712;28;20035;-66
2023/10/23 05:49:10;;;;;;;1.88;0.80;;;18.50;68.40;;;;;;5060087;28;20044;-67
2023/10/23 05:51:35;;;;;;;3.13;1.13;;;18.50;68.40;;;;;;5061858;28;20051;-66
2023/10/23 05:54:02;;;;;;;3.95;1.15;;;18.50;68.40;;;;;;5055077;28;20036;-66
2023/10/23 05:56:28;;;;;;;1.67;0.88;;;18.50;68.40;;;;;;5059985;28;20037;-67
2023/10/23 05:58:54;;;;;;;5.25;2.05;;;18.50;68.40;;;;;;5061393;28;20052;-67
2023/10/23 06:01:19;;;;;;;2.25;1.40;;;18.50;68.50;;;;;;5058694;28;20446;-67
2023/10/23 06:03:45;;;;;;;3.03;1.15;;;18.50;68.50;;;;;;5063630;28;20059;-67
2023/10/23 06:06:12;;;;;;;4.97;1.42;;;18.50;68.50;;;;;;5065828;28;20033;-68
2023/10/23 06:08:38;;;;;;;2.38;1.23;;;18.50;68.50;;;;;;5063705;28;20036;-67
2023/10/23 06:11:08;;;;;;;2.72;1.50;;;18.50;68.50;;;;;;5057616;28;20571;-66
2023/10/23 06:13:33;;;;;;;5.18;1.30;;;18.60;68.60;;;;;;5058280;28;20074;-67
2023/10/23 06:16:06;;;;;;;2.83;1.38;;;18.50;68.60;;;;;;5061930;28;20441;-67
2023/10/23 06:18:35;;;;;;;3.38;1.20;;;18.50;68.60;;;;;;5063164;28;20228;-67
2023/10/23 06:21:05;;;;;;;2.50;1.20;;;18.50;68.70;;;;;;5059487;28;20488;-65
2023/10/23 06:23:38;;;;;;;2.90;1.40;;;18.50;68.70;;;;;;5057358;28;20488;-65
2023/10/23 06:26:05;;;;;;;3.92;1.30;;;18.50;68.60;;;;;;5064302;28;20031;-66
2023/10/23 06:28:33;;;;;;;3.35;1.25;;;18.50;68.70;;;;;;5060699;28;20604;-67
2023/10/23 06:31:09;;;;;;;3.67;1.73;;;18.50;68.70;;;;;;5057651;28;20044;-66
2023/10/23 06:33:36;;;;;;;4.60;1.75;;;18.50;68.70;;;;;;5062280;28;20055;-66
2023/10/23 06:36:03;;;;;;;2.60;1.50;;;18.50;68.70;;;;;;5066093;28;20518;-64
2023/10/23 06:38:29;;;;;;;2.55;1.58;;;18.50;68.70;;;;;;5061854;28;20057;-66
2023/10/23 06:40:55;;;;;;;3.72;1.42;;;18.50;68.60;;;;;;5059706;28;20060;-67
2023/10/23 06:43:20;;;;;;;2.40;1.35;;;18.50;68.60;;;;;;5061038;28;20090;-66
2023/10/23 06:45:46;;;;;;;2.72;1.77;;;18.50;68.60;;;;;;5062083;28;20118;-66
2023/10/23 06:48:13;;;;;;;2.38;1.38;;;18.50;68.60;;;;;;5064309;28;20039;-66
2023/10/23 06:50:46;;;;;;;3.55;1.58;;;18.50;68.60;;;;;;5064347;28;20094;-67
2023/10/23 06:53:11;;;;;;;4.07;1.40;;;18.50;68.60;;;;;;5063581;28;20059;-67
2023/10/23 06:55:46;;;;;;;3.10;1.40;;;18.50;68.50;;;;;;5063555;28;20426;-66
2023/10/23 06:58:11;;;;;;;3.45;1.58;;;18.50;68.50;;;;;;5060191;28;20426;-66
2023/10/23 07:00:37;;;;;;;5.88;1.60;;;18.50;68.50;;;;;;5061177;28;20028;-66
2023/10/23 07:03:04;;;;;;;3.03;1.30;;;18.50;68.50;;;;;;5063654;28;20164;-67
2023/10/23 07:05:29;;;;;;;4.60;1.67;;;18.50;68.50;;;;;;5063202;28;20076;-66
2023/10/23 07:07:55;;;;;;;2.67;1.60;;;18.50;68.40;;;;;;5059750;28;20696;-66
2023/10/23 07:10:20;;;;;;;1.67;1.00;;;18.50;68.50;;;;;;5059539;28;20057;-67
2023/10/23 07:12:46;;;;;;;3.65;1.80;;;18.50;68.50;;;;;;5056519;28;20047;-66
2023/10/23 07:15:11;;;;;;;6.50;1.70;;;18.50;68.50;;;;;;5061483;28;20057;-67
2023/10/23 07:17:37;;;;;;;4.40;2.25;;;18.50;68.50;;;;;;5062283;28;20441;-65
2023/10/23 07:20:06;;;;;;;7.72;1.88;;;18.50;68.50;;;;;;5061493;28;20025;-65
2023/10/23 07:22:32;;;;;;;6.72;1.65;;;18.60;68.60;;;;;;5060968;28;20479;-64
2023/10/23 07:24:58;;;;;;;9.80;2.55;;;18.50;68.60;;;;;;5058649;28;20035;-64
2023/10/23 07:27:24;;;;;;;3.80;1.85;;;18.50;68.60;;;;;;5060186;28;20051;-65
2023/10/23 07:29:49;;;;;;;6.90;2.05;;;18.50;68.60;;;;;;5061077;28;20398;-65
2023/10/23 07:32:15;;;;;;;4.88;1.77;;;18.50;68.60;;;;;;5062294;28;20028;-65
2023/10/23 07:34:40;;;;;;;4.57;1.95;;;18.50;68.60;;;;;;5062698;28;20491;-64
2023/10/23 07:37:06;;;;;;;4.13;1.92;;;18.50;68.60;;;;;;5064828;28;20028;-65
2023/10/23 07:39:31;;;;;;;6.60;2.00;;;18.50;68.60;;;;;;5056315;28;20453;-64
2023/10/23 07:41:57;;;;;;;3.38;1.58;;;18.60;68.70;;;;;;5060571;28;20029;-63
2023/10/23 07:44:22;;;;;;;5.07;1.73;;;18.50;68.60;;;;;;5065228;28;20559;-63
2023/10/23 07:46:48;;;;;;;6.53;2.22;;;18.50;68.60;;;;;;5060484;28;20032;-65
2023/10/23 07:49:13;;;;;;;3.92;2.28;;;18.50;68.60;;;;;;5062582;28;20056;-65
2023/10/23 07:51:39;;;;;;;3.72;1.80;;;18.50;68.60;;;;;;5062404;28;20068;-65
2023/10/23 07:54:04;;;;;;;6.35;2.17;;;18.50;68.60;;;;;;5062341;28;20029;-65
2023/10/23 07:56:30;;;;;;;5.57;2.00;;;18.50;68.60;;;;;;5058346;28;20067;-65
2023/10/23 07:58:56;;;;;;;3.38;2.05;;;18.50;68.60;;;;;;5060778;28;20032;-64
2023/10/23 08:01:22;;;;;;;6.10;1.95;;;18.50;68.50;;;;;;5061010;28;20047;-66
2023/10/23 08:03:47;;;;;;;3.42;1.85;;;18.60;68.60;;;;;;5062673;28;20559;-65
2023/10/23 08:06:15;;;;;;;5.53;2.33;;;18.50;68.50;;;;;;5063682;28;20124;-63
2023/10/23 08:08:41;;;;;;;5.00;1.92;;;18.50;68.50;;;;;;5052950;28;20059;-64
2023/10/23 08:11:09;;;;;;;5.65;2.15;;;18.60;68.60;;;;;;5056276;28;20072;-65
2023/10/23 08:13:35;;;;;;;2.95;1.83;;;18.50;68.50;;;;;;5059058;28;20123;-64
2023/10/23 08:16:01;;;;;;;4.13;1.90;;;18.60;68.60;;;;;;5061353;28;20121;-65
2023/10/23 08:18:26;;;;;;;2.70;1.60;;;18.50;68.50;;;;;;5063823;28;20044;-65
2023/10/23 08:20:52;;;;;;;6.00;2.17;;;18.50;68.50;;;;;;5062039;28;20032;-64
2023/10/23 08:23:18;;;;;;;3.13;1.70;;;18.50;68.50;;;;;;5061159;28;20066;-65
2023/10/23 08:25:44;;;;;;;4.18;1.90;;;18.50;68.50;;;;;;5059751;28;20036;-65
2023/10/23 08:28:10;;;;;;;3.80;1.50;;;18.50;68.50;;;;;;5057427;28;20024;-64
2023/10/23 08:30:35;;;;;;;4.70;1.98;;;18.50;68.50;;;;;;5059326;28;20123;-65
2023/10/23 08:33:01;;;;;;;4.25;1.67;;;18.50;68.50;;;;;;5062134;28;20032;-64
2023/10/23 08:35:28;;;;;;;4.55;2.10;;;18.50;68.50;;;;;;5056469;28;20093;-65
2023/10/23 08:37:56;;;;;;;3.55;1.30;;;18.50;68.50;;;;;;5058899;28;20040;-65
2023/10/23 08:40:22;;;;;;;3.38;1.73;;;18.50;68.50;;;;;;5053613;28;20036;-65
2023/10/23 08:42:48;;;;;;;3.65;1.58;;;18.50;68.40;;;;;;5061700;28;20511;-66
2023/10/23 08:45:17;;;;;;;2.42;1.75;;;18.50;68.50;;;;;;5059420;28;20025;-65
2023/10/23 08:47:43;;;;;;;4.22;2.08;;;18.60;68.50;;;;;;5058474;28;20433;-65
2023/10/23 08:50:09;;;;;;;3.50;1.80;;;18.50;68.50;;;;;;5060154;28;20024;-65
2023/10/23 08:52:43;;;;;;;4.03;1.67;;;18.50;68.50;;;;;;5062312;28;20404;-64
2023/10/23 08:55:14;;;;;;;5.57;2.10;;;18.60;68.50;;;;;;5059092;28;20028;-66
2023/10/23 08:57:52;;;;;;;5.95;1.88;;;18.60;68.50;;;;;;5074383;28;20120;-65
2023/10/23 09:00:17;;;;;;;8.20;1.80;;;18.60;68.50;;;;;;5059063;28;20040;-65
2023/10/23 09:02:43;;;;;;;3.28;1.83;;;18.60;68.40;;;;;;5055231;28;20097;-64
2023/10/23 09:05:08;;;;;;;5.43;2.15;;;18.60;68.40;;;;;;5058837;28;20364;-62
2023/10/23 09:07:34;;;;;;;5.20;1.55;;;18.60;68.40;;;;;;5058671;28;20051;-64
2023/10/23 09:10:01;;;;;;;3.42;1.73;;;18.50;68.40;;;;;;5055406;28;20040;-60
2023/10/23 09:12:44;;;;;;;4.95;1.63;;;18.60;68.40;;;;;;5063989;28;20046;-64
2023/10/23 09:15:14;;;;;;;3.72;1.20;;;18.60;68.30;;;;;;5057998;28;20038;-65
2023/10/23 09:17:41;;;;;;;5.72;1.45;;;18.60;68.40;;;;;;5058597;28;20040;-65
2023/10/23 09:20:19;;;;;;;4.90;1.60;;;18.60;68.30;;;;;;5059301;28;20028;-65
2023/10/23 09:22:48;;;;;;;3.70;1.92;;;18.60;68.30;;;;;;5049714;28;20041;-66
2023/10/23 09:25:21;;;;;;;4.80;1.50;;;18.60;68.30;;;;;;5055625;28;20395;-64
2023/10/23 09:27:47;;;;;;;2.28;1.20;;;18.60;68.30;;;;;;5056274;28;20025;-65
2023/10/23 09:30:15;;;;;;;4.53;1.35;;;18.60;68.30;;;;;;5050606;28;20024;-66
2023/10/23 09:32:41;;;;;;;2.33;1.35;;;18.60;68.20;;;;;;5051797;28;20522;-64
2023/10/23 09:35:10;;;;;;;1.67;0.80;;;18.60;68.20;;;;;;5058448;28;20119;-65
2023/10/23 09:37:36;;;;;;;2.95;1.08;;;18.60;68.20;;;;;;5056047;28;20031;-61
2023/10/23 09:40:08;;;;;;;4.63;1.10;;;18.60;68.20;;;;;;5062414;28;20033;-64
2023/10/23 09:42:34;;;;;;;3.28;1.40;;;18.60;68.20;;;;;;5067494;28;20483;-60
2023/10/23 09:45:01;;;;;;;3.65;1.45;;;18.60;68.20;;;;;;5061947;28;20032;-65
2023/10/23 09:47:28;;;;;;;3.15;1.25;;;18.60;68.20;;;;;;5064709;28;20032;-65
2023/10/23 09:49:54;;;;;;;2.50;0.98;;;18.60;68.20;;;;;;5062054;28;20032;-60
2023/10/23 09:52:23;;;;;;;1.90;0.90;;;18.60;68.10;;;;;;5060494;28;20032;-65
2023/10/23 09:54:49;;;;;;;3.88;1.13;;;18.60;68.10;;;;;;5064324;28;20040;-61
2023/10/23 09:57:17;;;;;;;4.45;1.55;;;18.60;68.00;;;;;;5064620;28;20345;-64
2023/10/23 09:59:48;;;;;;;4.40;1.17;;;18.60;68.60;;;;;;5053881;28;20029;-65
2023/10/23 10:02:15;;;;;;;1.67;0.93;;;18.60;68.00;;;;;;5062750;28;20037;-64
2023/10/23 10:04:46;;;;;;;4.72;1.10;;;18.60;68.10;;;;;;5060013;28;20029;-66
2023/10/23 10:07:19;;;;;;;1.73;0.77;;;18.60;68.00;;;;;;5061045;28;20028;-65
2023/10/23 10:09:45;;;;;;;3.00;1.20;;;18.60;68.00;;;;;;5066057;28;20612;-64
2023/10/23 10:12:11;;;;;;;1.30;0.70;;;18.60;68.00;;;;;;5064065;28;20112;-64
2023/10/23 10:14:40;;;;;;;3.03;1.08;;;18.60;68.00;;;;;;5065941;28;20574;-64
2023/10/23 10:17:06;;;;;;;2.92;1.13;;;18.60;68.00;;;;;;5066231;28;20377;-64
2023/10/23 10:19:34;;;;;;;3.60;1.50;;;18.60;68.00;;;;;;5062093;28;20040;-65
2023/10/23 10:22:11;;;;;;;2.78;1.08;;;18.60;68.00;;;;;;5059238;28;20029;-60
2023/10/23 10:24:37;;;;;;;3.17;0.93;;;18.60;68.00;;;;;;5057873;28;20082;-65
2023/10/23 10:27:03;;;;;;;2.88;1.05;;;18.60;68.00;;;;;;5064401;28;20037;-65
2023/10/23 10:29:30;;;;;;;2.17;0.75;;;18.60;68.00;;;;;;5060060;28;20032;-63
2023/10/23 10:32:09;;;;;;;2.53;0.95;;;18.60;67.90;;;;;;5064140;28;20047;-65
2023/10/23 10:34:36;;;;;;;2.80;0.90;;;18.60;67.90;;;;;;5061152;28;20037;-64
2023/10/23 10:37:04;;;;;;;2.47;0.77;;;18.60;67.90;;;;;;5059882;28;20039;-64
2023/10/23 10:39:50;;;;;;;2.22;0.93;;;18.60;67.90;;;;;;5067684;28;20115;-64
2023/10/23 10:42:16;;;;;;;2.78;0.90;;;18.60;68.00;;;;;;5066408;28;20025;-66
2023/10/23 10:44:55;;;;;;;2.05;0.85;;;18.60;67.90;;;;;;5061719;28;20033;-66
2023/10/23 10:47:32;;;;;;;2.45;0.85;;;18.60;68.00;;;;;;5052187;28;20522;-66
2023/10/23 10:49:57;;;;;;;2.78;0.82;;;18.60;67.90;;;;;;5057452;28;20312;-65
2023/10/23 10:52:32;;;;;;;3.83;0.80;;;18.60;67.90;;;;;;5063046;28;20412;-66
2023/10/23 10:55:08;;;;;;;2.08;0.80;;;18.60;67.90;;;;;;5061707;28;20112;-65
2023/10/23 10:57:36;;;;;;;2.72;1.10;;;18.60;67.90;;;;;;5058672;28;20127;-66
2023/10/23 11:00:03;;;;;;;1.63;1.02;;;18.60;67.90;;;;;;5062733;28;20060;-65
2023/10/23 11:02:28;;;;;;;2.10;0.90;;;18.60;67.90;;;;;;5062887;28;20281;-66
2023/10/23 11:04:54;;;;;;;3.70;0.90;;;18.60;67.80;;;;;;5059257;28;20282;-65
2023/10/23 11:07:22;;;;;;;2.53;0.70;;;18.60;67.80;;;;;;5065205;28;20024;-66
2023/10/23 11:09:48;;;;;;;3.13;1.35;;;18.60;67.90;;;;;;5065791;28;20112;-65
2023/10/23 11:12:14;;;;;;;2.47;1.17;;;18.60;67.80;;;;;;5064047;28;20581;-64
2023/10/23 11:14:39;;;;;;;1.10;0.68;;;18.60;67.80;;;;;;5061869;28;20426;-66
2023/10/23 11:17:05;;;;;;;2.25;0.90;;;18.60;67.80;;;;;;5057367;28;20032;-67
2023/10/23 11:19:31;;;;;;;2.45;0.98;;;18.60;67.80;;;;;;5062151;28;20216;-65
2023/10/23 11:22:10;;;;;;;1.75;0.77;;;18.60;67.80;;;;;;5062169;28;20146;-66
2023/10/23 11:24:36;;;;;;;2.40;1.50;;;18.60;67.80;;;;;;5058109;28;20104;-66
2023/10/23 11:27:04;;;;;;;3.38;0.70;;;18.60;67.80;;;;;;5056908;28;20064;-65
2023/10/23 11:29:38;;;;;;;1.40;0.73;;;18.60;67.80;;;;;;5062853;28;20082;-66
2023/10/23 11:32:05;;;;;;;1.70;0.70;;;18.60;67.80;;;;;;5063905;28;20032;-66
2023/10/23 11:34:30;;;;;;;2.17;0.70;;;18.50;67.70;;;;;;5064579;28;20032;-66
2023/10/23 11:36:56;;;;;;;4.00;0.70;;;18.60;67.80;;;;;;5065439;28;20450;-63
2023/10/23 11:39:21;;;;;;;1.70;0.75;;;18.60;67.70;;;;;;5068983;28;20043;-64
2023/10/23 11:41:57;;;;;;;1.30;0.50;;;18.60;67.80;;;;;;5064726;28;20132;-66
2023/10/23 11:44:30;;;;;;;;;;;18.60;67.80;;;;;;5062705;28;20035;-65
2023/10/23 11:46:58;;;;;;;2.97;0.70;;;18.60;67.80;;;;;;5062328;28;19909;-66
2023/10/23 11:49:24;;;;;;;2.17;0.90;;;18.60;67.80;;;;;;5061283;28;20158;-66
2023/10/23 11:51:51;;;;;;;2.08;1.15;;;18.60;67.80;;;;;;5059962;28;20033;-71
2023/10/23 11:54:17;;;;;;;1.98;0.80;;;18.60;67.80;;;;;;5058406;28;20483;-66
2023/10/23 11:56:44;;;;;;;1.60;0.70;;;18.60;67.80;;;;;;5057867;28;20036;-65
2023/10/23 11:59:18;;;;;;;2.15;0.80;;;18.60;67.80;;;;;;5059962;28;20111;-60
2023/10/23 12:01:44;;;;;;;1.10;0.70;;;18.60;67.80;;;;;;5058336;28;20044;-65
2023/10/23 12:04:10;;;;;;;1.60;0.80;;;18.60;67.80;;;;;;5061328;28;20468;-66
2023/10/23 12:06:36;;;;;;;0.85;0.50;;;18.60;67.80;;;;;;5065164;28;20032;-66
2023/10/23 12:09:02;;;;;;;1.50;0.75;;;18.60;67.80;;;;;;5066762;28;20033;-66
2023/10/23 12:11:31;;;;;;;3.75;0.98;;;18.60;67.80;;;;;;5063336;28;20032;-64
2023/10/23 12:13:59;;;;;;;1.10;0.50;;;18.50;67.80;;;;;;5060957;28;20025;-65
2023/10/23 12:16:26;;;;;;;1.65;0.70;;;18.60;67.80;;;;;;5060278;28;20068;-66
2023/10/23 12:18:51;;;;;;;2.58;0.60;;;18.60;67.80;;;;;;5061341;28;20029;-66
2023/10/23 12:21:18;;;;;;;0.90;0.55;;;18.60;67.80;;;;;;5061284;28;20036;-65
2023/10/23 12:23:44;;;;;;;1.13;0.52;;;18.60;67.80;;;;;;5055532;28;20036;-64
2023/10/23 12:26:10;;;;;;;3.35;0.60;;;18.60;67.80;;;;;;5059456;28;20166;-65
2023/10/23 12:28:35;;;;;;;0.93;0.70;;;18.60;67.80;;;;;;5060367;28;20062;-65
2023/10/23 12:31:04;;;;;;;1.40;0.80;;;18.60;67.80;;;;;;5061735;28;20036;-66
2023/10/23 12:33:30;;;;;;;1.38;0.60;;;18.60;67.80;;;;;;5057365;28;20048;-66
2023/10/23 12:35:55;;;;;;;3.58;0.60;;;18.60;67.90;;;;;;5063878;28;20031;-65
2023/10/23 12:38:21;;;;;;;3.08;0.63;;;18.60;67.80;;;;;;5068391;28;20056;-65
2023/10/23 12:40:48;;;;;;;1.45;0.50;;;18.60;67.80;;;;;;5061455;28;20037;-66
2023/10/23 12:43:14;;;;;;;0.80;0.50;;;18.60;67.80;;;;;;5059442;28;20051;-62
2023/10/23 12:45:41;;;;;;;1.55;0.88;;;18.60;67.80;;;;;;5061411;28;22207;-66